Time;durP1;ratioP1;P1;durP2;ratioP2;P2;SDS_P1;SDS_P2;PMS_P1;PMS_P2;Temp;Humidity;BMP_temperature;BMP_pressure;BME280_temperature;BME280_humidity;BME280_pressure;Samples;Min_cycle;Max_cycle;Signal;HPM_P1;HPM_P2
2021/06/03 00:00:00;;;;;;;1.02;0.80;;;;;;;-148.58;100.00;55229.56;5034383;28;20071;-56
2021/06/03 00:02:26;;;;;;;0.95;0.60;;;;;;;-148.58;100.00;55229.56;5035741;28;20461;-56
2021/06/03 00:04:51;;;;;;;1.20;0.77;;;;;;;-148.58;100.00;55229.56;5035720;28;20112;-56
2021/06/03 00:07:18;;;;;;;0.98;0.90;;;;;;;-148.58;100.00;55229.56;5035765;28;20077;-56
2021/06/03 00:09:43;;;;;;;3.53;0.90;;;;;;;-148.58;100.00;55229.56;5035722;28;20272;-56
2021/06/03 00:12:09;;;;;;;1.75;1.05;;;;;;;-148.58;100.00;55229.56;5035792;28;20108;-56
2021/06/03 00:14:35;;;;;;;1.23;0.82;;;;;;;-148.58;100.00;55229.56;5035476;28;20037;-56
2021/06/03 00:17:00;;;;;;;5.18;1.42;;;;;;;-148.58;100.00;55229.56;5035399;28;20447;-56
2021/06/03 00:19:26;;;;;;;1.98;1.10;;;;;;;-148.58;100.00;55229.56;5035580;28;20372;-57
2021/06/03 00:21:51;;;;;;;2.15;1.23;;;;;;;-148.58;100.00;55229.56;5035199;28;20051;-56
2021/06/03 00:24:17;;;;;;;2.88;0.95;;;;;;;-148.58;100.00;55229.56;5035541;28;20022;-57
2021/06/03 00:26:42;;;;;;;2.53;1.20;;;;;;;-148.58;100.00;55229.56;5035397;28;20515;-56
2021/06/03 00:29:09;;;;;;;2.15;1.38;;;;;;;-148.58;100.00;55229.56;5035409;28;20028;-56
2021/06/03 00:31:35;;;;;;;1.52;1.00;;;;;;;-148.58;100.00;55229.56;5035232;28;20030;-56
2021/06/03 00:34:00;;;;;;;3.15;1.17;;;;;;;-148.58;100.00;55229.56;5035357;28;20029;-56
2021/06/03 00:36:25;;;;;;;3.22;1.75;;;;;;;-148.58;100.00;55229.56;5035250;28;20100;-56
2021/06/03 00:38:50;;;;;;;2.17;1.27;;;;;;;-148.58;100.00;55229.56;5035036;28;20022;-57
2021/06/03 00:41:17;;;;;;;2.33;1.27;;;;;;;-148.58;100.00;55229.56;5035242;28;20029;-56
2021/06/03 00:43:43;;;;;;;1.55;0.98;;;;;;;-148.58;100.00;55229.56;5035025;28;20028;-56
2021/06/03 00:46:09;;;;;;;3.58;1.38;;;;;;;-148.58;100.00;55229.56;5035062;28;20025;-56
2021/06/03 00:48:35;;;;;;;1.83;0.95;;;;;;;-148.58;100.00;55229.56;5034810;28;20029;-56
2021/06/03 00:51:05;;;;;;;2.85;1.10;;;;;;;-148.58;100.00;55229.56;5034987;28;20021;-57
2021/06/03 00:53:32;;;;;;;2.10;1.00;;;;;;;-148.58;100.00;55229.56;5034883;28;20037;-57
2021/06/03 00:55:58;;;;;;;2.13;1.08;;;;;;;-148.58;100.00;55229.56;5034902;28;20029;-56
2021/06/03 00:58:24;;;;;;;1.85;1.00;;;;;;;-148.58;100.00;55229.56;5034817;28;20029;-57
2021/06/03 01:00:51;;;;;;;1.85;1.00;;;;;;;-148.58;100.00;55229.56;5034629;28;20043;-57
2021/06/03 01:03:18;;;;;;;2.10;1.35;;;;;;;-148.58;100.00;55229.56;5034762;28;20032;-57
2021/06/03 01:05:44;;;;;;;2.60;1.10;;;;;;;-148.58;100.00;55229.56;5034562;28;20354;-58
2021/06/03 01:08:13;;;;;;;1.58;0.95;;;;;;;-148.58;100.00;55229.56;5034701;28;20026;-56
2021/06/03 01:10:53;;;;;;;2.22;1.10;;;;;;;-148.58;100.00;55229.56;5034266;28;20108;-56
2021/06/03 01:13:39;;;;;;;3.20;1.35;;;;;;;-148.58;100.00;55229.56;5034638;28;20140;-57
2021/06/03 01:16:05;;;;;;;2.13;0.93;;;;;;;-148.58;100.00;55229.56;5034590;28;20050;-57
2021/06/03 01:18:32;;;;;;;2.30;1.00;;;;;;;-148.58;100.00;55229.56;5034625;28;20412;-56
2021/06/03 01:20:59;;;;;;;1.85;1.00;;;;;;;-148.58;100.00;55229.56;5034338;28;20026;-57
2021/06/03 01:23:47;;;;;;;2.20;0.90;;;;;;;-148.58;100.00;55229.56;5034358;28;20056;-56
2021/06/03 01:26:16;;;;;;;2.60;1.15;;;;;;;-148.58;100.00;55229.56;5034435;28;20036;-56
2021/06/03 01:28:43;;;;;;;1.60;1.08;;;;;;;-148.58;100.00;55229.56;5034210;28;20391;-56
2021/06/03 01:31:09;;;;;;;2.40;1.10;;;;;;;-148.58;100.00;55229.56;5034284;28;20026;-57
2021/06/03 01:33:38;;;;;;;1.85;1.05;;;;;;;-148.58;100.00;55229.56;5034220;28;20032;-56
2021/06/03 01:36:07;;;;;;;1.67;0.93;;;;;;;-148.58;100.00;55229.56;5034424;28;20052;-57
2021/06/03 01:38:36;;;;;;;1.85;1.05;;;;;;;-148.58;100.00;55229.56;5033907;28;20037;-57
2021/06/03 01:41:03;;;;;;;2.13;1.10;;;;;;;-148.58;100.00;55229.56;5034015;28;20022;-56
2021/06/03 01:43:30;;;;;;;1.83;1.00;;;;;;;-148.58;100.00;55229.56;5034060;28;20353;-56
2021/06/03 01:45:57;;;;;;;1.90;1.10;;;;;;;-148.58;100.00;55229.56;5033959;28;20029;-56
2021/06/03 01:48:23;;;;;;;2.78;0.90;;;;;;;-148.58;100.00;55229.56;5033855;28;20052;-57
2021/06/03 01:50:50;;;;;;;1.33;0.85;;;;;;;-148.58;100.00;55229.56;5033756;28;20469;-56
2021/06/03 01:53:17;;;;;;;2.00;0.98;;;;;;;-148.58;100.00;55229.56;5033887;28;20032;-56
2021/06/03 01:55:43;;;;;;;1.77;1.05;;;;;;;-148.58;100.00;55229.56;5033702;28;20026;-56
2021/06/03 01:58:09;;;;;;;3.00;1.00;;;;;;;-148.58;100.00;55229.56;5033898;28;20025;-56
2021/06/03 02:00:34;;;;;;;1.85;1.08;;;;;;;-148.58;100.00;55229.56;5033494;28;20520;-57
2021/06/03 02:03:00;;;;;;;1.17;0.95;;;;;;;-148.58;100.00;55229.56;5033469;28;20048;-56
2021/06/03 02:05:26;;;;;;;2.35;0.88;;;;;;;-148.58;100.00;55229.56;5033733;28;20025;-57
2021/06/03 02:07:51;;;;;;;1.15;0.73;;;;;;;-148.58;100.00;55229.56;5033360;28;20033;-56
2021/06/03 02:10:18;;;;;;;1.02;0.80;;;;;;;-148.58;100.00;55229.56;5033840;28;20029;-56
2021/06/03 02:12:55;;;;;;;1.15;0.73;;;;;;;-148.58;100.00;55229.56;5033400;28;20037;-56
2021/06/03 02:15:23;;;;;;;1.10;0.70;;;;;;;-148.58;100.00;55229.56;5033409;28;20036;-56
2021/06/03 02:17:55;;;;;;;1.15;0.98;;;;;;;-148.58;100.00;55229.56;5033267;28;20484;-57
2021/06/03 02:20:26;;;;;;;1.55;0.95;;;;;;;-148.58;100.00;55229.56;5033169;28;20037;-56
2021/06/03 02:22:52;;;;;;;1.60;0.85;;;;;;;-148.58;100.00;55229.56;5032475;28;20044;-57
2021/06/03 02:25:18;;;;;;;1.00;0.80;;;;;;;-148.58;100.00;55229.56;5033238;28;20032;-56
2021/06/03 02:27:44;;;;;;;1.85;0.80;;;;;;;-148.58;100.00;55229.56;5032963;28;20035;-56
2021/06/03 02:30:11;;;;;;;1.35;0.85;;;;;;;-148.58;100.00;55229.56;5033252;28;20116;-56
2021/06/03 02:32:37;;;;;;;0.93;0.73;;;;;;;-148.58;100.00;55229.56;5032951;28;20357;-56
2021/06/03 02:35:04;;;;;;;1.17;0.80;;;;;;;-148.58;100.00;55229.56;5033068;28;20032;-56
2021/06/03 02:37:30;;;;;;;1.30;0.70;;;;;;;-148.58;100.00;55229.56;5033074;28;20043;-56
2021/06/03 02:40:04;;;;;;;0.65;0.60;;;;;;;-148.58;100.00;55229.56;5033245;28;20456;-56
2021/06/03 02:42:29;;;;;;;0.95;0.60;;;;;;;-148.58;100.00;55229.56;5032950;28;20108;-56
2021/06/03 02:44:55;;;;;;;0.65;0.65;;;;;;;-148.58;100.00;55229.56;5032842;28;20476;-57
2021/06/03 02:47:20;;;;;;;2.00;0.75;;;;;;;-148.58;100.00;55229.56;5032823;28;20029;-56
2021/06/03 02:49:45;;;;;;;1.58;0.77;;;;;;;-148.58;100.00;55229.56;5032716;28;20099;-56
2021/06/03 02:52:10;;;;;;;1.40;0.85;;;;;;;-148.58;100.00;55229.56;5032669;28;20134;-56
2021/06/03 02:54:36;;;;;;;1.05;0.85;;;;;;;-148.58;100.00;55229.56;5032614;28;20087;-56
2021/06/03 02:57:01;;;;;;;2.00;0.80;;;;;;;-148.58;100.00;55229.56;5032724;28;20393;-57
2021/06/03 02:59:27;;;;;;;1.15;0.80;;;;;;;-148.58;100.00;55229.56;5032773;28;20358;-56
2021/06/03 03:01:52;;;;;;;0.70;0.70;;;;;;;-148.58;100.00;55229.56;5032560;28;20029;-57
2021/06/03 03:04:18;;;;;;;1.00;0.60;;;;;;;-148.58;100.00;55229.56;5032708;28;20040;-56
2021/06/03 03:06:43;;;;;;;1.15;0.90;;;;;;;-148.58;100.00;55229.56;5032195;28;20032;-57
2021/06/03 03:09:08;;;;;;;0.95;0.73;;;;;;;-148.58;100.00;55229.56;5014940;28;20480;-56
2021/06/03 03:11:33;;;;;;;1.40;0.70;;;;;;;-148.58;100.00;55229.56;5032481;28;20025;-56
2021/06/03 03:13:59;;;;;;;0.75;0.68;;;;;;;-148.58;100.00;55229.56;5015193;28;20025;-56
2021/06/03 03:16:25;;;;;;;1.67;0.70;;;;;;;-148.58;100.00;55229.56;5032663;28;20022;-57
2021/06/03 03:18:50;;;;;;;2.22;0.70;;;;;;;-148.58;100.00;55229.56;5032426;28;20033;-56
2021/06/03 03:21:16;;;;;;;1.00;0.68;;;;;;;-148.58;100.00;55229.56;5032226;28;20029;-56
2021/06/03 03:23:41;;;;;;;1.13;0.70;;;;;;;-148.58;100.00;55229.56;5032381;28;20032;-56
2021/06/03 03:26:07;;;;;;;1.05;0.60;;;;;;;-148.58;100.00;55229.56;5032396;28;20033;-56
2021/06/03 03:28:32;;;;;;;1.77;0.85;;;;;;;-148.58;100.00;55229.56;5032253;28;20492;-56
2021/06/03 03:30:58;;;;;;;1.80;0.60;;;;;;;-148.58;100.00;55229.56;5032411;28;20108;-56
2021/06/03 03:33:24;;;;;;;2.00;0.68;;;;;;;-148.58;100.00;55229.56;5014698;28;20424;-56
2021/06/03 03:35:50;;;;;;;1.05;0.70;;;;;;;-148.58;100.00;55229.56;5036074;28;20056;-56
2021/06/03 03:38:17;;;;;;;0.70;0.60;;;;;;;-148.58;100.00;55229.56;5036493;28;20453;-56
2021/06/03 03:40:43;;;;;;;1.10;0.70;;;;;;;-148.58;100.00;55229.56;5036851;28;20025;-56
2021/06/03 03:43:09;;;;;;;3.08;0.90;;;;;;;-148.58;100.00;55229.56;5036319;28;20017;-56
2021/06/03 03:45:35;;;;;;;1.60;0.70;;;;;;;-148.58;100.00;55229.56;5036215;28;20021;-57
2021/06/03 03:48:02;;;;;;;0.60;0.50;;;;;;;-148.58;100.00;55229.56;5036220;28;20435;-56
2021/06/03 03:50:28;;;;;;;0.73;0.60;;;;;;;-148.58;100.00;55229.56;5018353;28;20025;-57
2021/06/03 03:52:53;;;;;;;2.40;0.70;;;;;;;-148.58;100.00;55229.56;5036303;28;20032;-57
2021/06/03 03:55:19;;;;;;;1.55;0.77;;;;;;;-148.58;100.00;55229.56;5036179;28;20036;-56
2021/06/03 03:57:46;;;;;;;1.08;0.60;;;;;;;-148.58;100.00;55229.56;5035945;28;20424;-56
2021/06/03 04:00:34;;;;;;;1.02;0.77;;;;;;;-148.58;100.00;55229.56;5036003;28;20033;-56
2021/06/03 04:03:00;;;;;;;2.17;0.73;;;;;;;-148.58;100.00;55229.56;5036140;28;20022;-56
2021/06/03 04:05:26;;;;;;;2.05;0.50;;;;;;;-148.58;100.00;55229.56;5036019;28;20026;-56
2021/06/03 04:07:51;;;;;;;1.95;0.98;;;;;;;-148.58;100.00;55229.56;5035664;28;20108;-56
2021/06/03 04:10:19;;;;;;;0.90;0.60;;;;;;;-148.58;100.00;55229.56;5035916;28;20052;-56
2021/06/03 04:12:45;;;;;;;1.63;0.80;;;;;;;-148.58;100.00;55229.56;5035653;28;20025;-56
2021/06/03 04:15:12;;;;;;;2.10;0.77;;;;;;;-148.58;100.00;55229.56;5035664;28;20377;-56
2021/06/03 04:17:38;;;;;;;2.15;0.70;;;;;;;-148.58;100.00;55229.56;5035326;28;20030;-57
2021/06/03 04:20:07;;;;;;;2.72;0.50;;;;;;;-148.58;100.00;55229.56;5035619;28;20036;-56
2021/06/03 04:22:32;;;;;;;1.08;0.60;;;;;;;-148.58;100.00;55229.56;5035264;28;20055;-56
2021/06/03 04:24:58;;;;;;;1.50;0.50;;;;;;;-148.58;100.00;55229.56;5035435;28;20029;-57
2021/06/03 04:27:23;;;;;;;0.32;0.30;;;;;;;-148.58;100.00;55229.56;5035515;28;20033;-57
2021/06/03 04:29:48;;;;;;;2.42;0.45;;;;;;;-148.58;100.00;55229.56;5035596;28;20029;-57
2021/06/03 04:32:14;;;;;;;1.05;0.60;;;;;;;-148.58;100.00;55229.56;5035521;28;20030;-56
2021/06/03 04:34:40;;;;;;;0.77;0.50;;;;;;;-148.58;100.00;55229.56;5035207;28;20030;-56
2021/06/03 04:37:05;;;;;;;1.25;0.55;;;;;;;-148.58;100.00;55229.56;5035319;28;20018;-56
2021/06/03 04:39:30;;;;;;;1.42;0.50;;;;;;;-148.58;100.00;55229.56;5035238;28;20372;-57
2021/06/03 04:41:56;;;;;;;1.45;0.70;;;;;;;-148.58;100.00;55229.56;5035227;28;20488;-57
2021/06/03 04:44:21;;;;;;;2.08;0.60;;;;;;;-148.58;100.00;55229.56;5034972;28;20492;-57
2021/06/03 04:46:48;;;;;;;1.23;0.40;;;;;;;-148.58;100.00;55229.56;5034634;28;20269;-56
2021/06/03 04:49:13;;;;;;;1.65;0.50;;;;;;;-148.58;100.00;55229.56;5035058;28;20040;-56
2021/06/03 04:51:39;;;;;;;0.80;0.38;;;;;;;-148.58;100.00;55229.56;5034797;28;20021;-56
2021/06/03 04:54:05;;;;;;;2.15;0.50;;;;;;;-148.58;100.00;55229.56;5035032;28;20022;-56
2021/06/03 04:56:31;;;;;;;1.90;0.50;;;;;;;-148.58;100.00;55229.56;5034747;28;20384;-56
2021/06/03 04:58:56;;;;;;;1.65;0.43;;;;;;;-148.58;100.00;55229.56;5034850;28;20117;-57
2021/06/03 05:01:22;;;;;;;2.05;0.43;;;;;;;-148.58;100.00;55229.56;5034837;28;20018;-56
2021/06/03 05:03:47;;;;;;;0.90;0.52;;;;;;;-148.58;100.00;55229.56;5034706;28;20022;-56
2021/06/03 05:06:12;;;;;;;0.30;0.20;;;;;;;-148.58;100.00;55229.56;5034990;28;20018;-57
2021/06/03 05:08:38;;;;;;;0.55;0.40;;;;;;;-148.58;100.00;55229.56;5034485;28;20473;-57
2021/06/03 05:11:03;;;;;;;0.38;0.20;;;;;;;-148.58;100.00;55229.56;5034447;28;20100;-56
2021/06/03 05:13:30;;;;;;;1.40;0.30;;;;;;;-148.58;100.00;55229.56;5034602;28;20029;-56
2021/06/03 05:15:56;;;;;;;0.55;0.20;;;;;;;-148.58;100.00;55229.56;5034543;28;20499;-56
2021/06/03 05:18:22;;;;;;;0.22;0.15;;;;;;;-148.58;100.00;55229.56;5034487;28;20056;-57
2021/06/03 05:20:47;;;;;;;0.60;0.20;;;;;;;-148.58;100.00;55229.56;5034334;28;20377;-56
2021/06/03 05:23:14;;;;;;;0.50;0.40;;;;;;;-148.58;100.00;55229.56;5034301;28;20050;-56
2021/06/03 05:25:39;;;;;;;0.80;0.30;;;;;;;-148.58;100.00;55229.56;5034224;28;20082;-56
2021/06/03 05:28:04;;;;;;;0.20;0.10;;;;;;;-148.58;100.00;55229.56;5034380;28;20540;-56
2021/06/03 05:30:31;;;;;;;0.08;0.03;;;;;;;-148.58;100.00;55229.56;5034225;28;20052;-56
2021/06/03 05:32:56;;;;;;;0.30;0.17;;;;;;;-148.58;100.00;55229.56;5034205;28;20468;-56
2021/06/03 05:35:23;;;;;;;0.20;0.10;;;;;;;-148.58;100.00;55229.56;5034164;28;20029;-56
2021/06/03 05:37:49;;;;;;;0.63;0.15;;;;;;;-148.58;100.00;55229.56;5034015;28;20032;-57
2021/06/03 05:40:21;;;;;;;0.90;0.20;;;;;;;-148.58;100.00;55229.56;5034199;28;20029;-57
2021/06/03 05:42:48;;;;;;;0.55;0.20;;;;;;;-148.58;100.00;55229.56;5033929;28;20506;-56
2021/06/03 05:45:14;;;;;;;0.40;0.20;;;;;;;-148.58;100.00;55229.56;5034005;28;20460;-57
2021/06/03 05:47:40;;;;;;;0.63;0.30;;;;;;;-148.58;100.00;55229.56;5015967;28;20052;-56
2021/06/03 05:50:09;;;;;;;1.23;0.38;;;;;;;-148.58;100.00;55229.56;5034005;28;20029;-56
2021/06/03 05:52:36;;;;;;;3.08;0.63;;;;;;;-148.58;100.00;55229.56;5033627;28;20026;-56
2021/06/03 05:55:02;;;;;;;0.63;0.10;;;;;;;-148.58;100.00;55229.56;5033787;28;20499;-56
2021/06/03 05:57:27;;;;;;;0.32;0.22;;;;;;;-148.58;100.00;55229.56;5032937;28;20104;-57
2021/06/03 05:59:53;;;;;;;0.52;0.20;;;;;;;-148.58;100.00;55229.56;5033671;28;20120;-56
2021/06/03 06:02:24;;;;;;;0.77;0.25;;;;;;;-148.58;100.00;55229.56;5033634;28;20022;-57
2021/06/03 06:07:53;;;;;;;0.93;0.13;;;;;;;-148.58;100.00;55229.56;4991254;28;20041;-57
2021/06/03 06:10:18;;;;;;;1.02;0.20;;;;;;;-148.58;100.00;55229.56;4991091;28;20022;-57
2021/06/03 06:12:44;;;;;;;0.50;0.20;;;;;;;-148.58;100.00;55229.56;4990943;28;20407;-57
2021/06/03 06:15:09;;;;;;;0.50;0.10;;;;;;;-148.58;100.00;55229.56;4990981;28;20029;-56
2021/06/03 06:17:35;;;;;;;0.63;0.20;;;;;;;-148.58;100.00;55229.56;4987778;28;20026;-57
2021/06/03 06:20:00;;;;;;;0.15;0.10;;;;;;;-148.58;100.00;55229.56;4976564;28;20109;-57
2021/06/03 06:22:25;;;;;;;1.23;0.45;;;;;;;-148.58;100.00;55229.56;4976949;28;20073;-56
2021/06/03 06:24:51;;;;;;;0.55;0.17;;;;;;;-148.58;100.00;55229.56;4974411;28;20124;-57
2021/06/03 06:27:16;;;;;;;1.65;0.32;;;;;;;-148.58;100.00;55229.56;4975319;28;20038;-57
2021/06/03 06:29:41;;;;;;;0.65;0.20;;;;;;;-148.58;100.00;55229.56;4986981;28;20026;-58
2021/06/03 06:32:07;;;;;;;1.00;0.30;;;;;;;-148.58;100.00;55229.56;4978873;28;20038;-57
2021/06/03 06:34:32;;;;;;;0.95;0.30;;;;;;;-148.58;100.00;55229.56;4974266;28;20034;-57
2021/06/03 06:36:57;;;;;;;1.08;0.30;;;;;;;-148.58;100.00;55229.56;4978722;28;20077;-56
2021/06/03 06:39:23;;;;;;;0.43;0.25;;;;;;;-148.58;100.00;55229.56;5014984;28;20038;-57
2021/06/03 06:41:48;;;;;;;1.08;0.40;;;;;;;-148.58;100.00;55229.56;5029520;28;20024;-57
2021/06/03 06:44:14;;;;;;;1.50;0.40;;;;;;;-148.58;100.00;55229.56;5022768;28;20049;-57
2021/06/03 06:46:39;;;;;;;1.05;0.30;;;;;;;-148.58;100.00;55229.56;5023975;28;20457;-57
2021/06/03 06:49:05;;;;;;;1.77;0.38;;;;;;;-148.58;100.00;55229.56;5028395;28;20040;-57
2021/06/03 06:51:30;;;;;;;2.72;0.43;;;;;;;-148.58;100.00;55229.56;5020707;28;20029;-57
2021/06/03 06:53:56;;;;;;;1.30;0.40;;;;;;;-148.58;100.00;55229.56;5030357;28;20025;-57
2021/06/03 06:56:21;;;;;;;0.95;0.47;;;;;;;-148.58;100.00;55229.56;5013829;28;20033;-58
2021/06/03 06:58:47;;;;;;;2.22;0.45;;;;;;;-148.58;100.00;55229.56;5019061;28;20050;-57
2021/06/03 07:01:12;;;;;;;0.93;0.73;;;;;;;-148.58;100.00;55229.56;5022716;28;20032;-58
2021/06/03 07:03:37;;;;;;;0.52;0.30;;;;;;;-148.58;100.00;55229.56;5019862;28;20427;-57
2021/06/03 07:06:03;;;;;;;2.20;0.60;;;;;;;-148.58;100.00;55229.56;5020950;28;20403;-57
2021/06/03 07:08:28;;;;;;;2.75;0.55;;;;;;;-148.58;100.00;55229.56;5016844;28;20048;-57
2021/06/03 07:10:54;;;;;;;0.95;0.30;;;;;;;-148.58;100.00;55229.56;5012166;28;20376;-58
2021/06/03 07:13:21;;;;;;;1.55;0.38;;;;;;;-148.58;100.00;55229.56;5012927;28;20025;-57
2021/06/03 07:15:46;;;;;;;0.95;0.40;;;;;;;-148.58;100.00;55229.56;5013631;28;20025;-57
2021/06/03 07:18:11;;;;;;;0.47;0.35;;;;;;;-148.58;100.00;55229.56;5013504;28;20068;-57
2021/06/03 07:20:37;;;;;;;1.02;0.47;;;;;;;-148.58;100.00;55229.56;5012685;28;20026;-59
2021/06/03 07:23:04;;;;;;;1.13;0.25;;;;;;;-148.58;100.00;55229.56;5011790;28;20049;-59
2021/06/03 07:25:31;;;;;;;0.45;0.30;;;;;;;-148.58;100.00;55229.56;5011952;28;20132;-58
2021/06/03 07:27:57;;;;;;;1.65;0.47;;;;;;;-148.58;100.00;55229.56;5012228;28;20420;-58
2021/06/03 07:30:24;;;;;;;1.23;0.40;;;;;;;-148.58;100.00;55229.56;5011945;28;20014;-58
2021/06/03 07:32:51;;;;;;;1.67;0.43;;;;;;;-148.58;100.00;55229.56;5012099;28;20017;-58
2021/06/03 07:35:17;;;;;;;2.40;0.70;;;;;;;-148.58;100.00;55229.56;5012883;28;20124;-58
2021/06/03 07:37:43;;;;;;;1.52;0.40;;;;;;;-148.58;100.00;55229.56;5011629;28;20083;-58
2021/06/03 07:40:11;;;;;;;2.70;0.60;;;;;;;-148.58;100.00;55229.56;5011927;28;20453;-58
2021/06/03 07:42:41;;;;;;;1.17;0.30;;;;;;;-148.58;100.00;55229.56;5011481;28;20069;-58
2021/06/03 07:45:08;;;;;;;1.05;0.38;;;;;;;-148.58;100.00;55229.56;5018767;28;20037;-59
2021/06/03 07:47:35;;;;;;;0.55;0.20;;;;;;;-148.58;100.00;55229.56;5011524;28;20049;-58
2021/06/03 07:50:00;;;;;;;2.15;0.50;;;;;;;-148.58;100.00;55229.56;5011508;28;20037;-58
2021/06/03 07:52:26;;;;;;;2.58;0.65;;;;;;;-148.58;100.00;55229.56;5012952;28;20519;-56
2021/06/03 07:54:51;;;;;;;0.73;0.30;;;;;;;-148.58;100.00;55229.56;5029135;28;20392;-58
2021/06/03 07:57:18;;;;;;;0.30;0.10;;;;;;;-148.58;100.00;55229.56;5016800;28;20425;-57
2021/06/03 07:59:43;;;;;;;0.68;0.13;;;;;;;-148.58;100.00;55229.56;5013372;28;20025;-59
2021/06/03 08:02:09;;;;;;;0.93;0.20;;;;;;;-148.58;100.00;55229.56;5015103;28;20090;-58
2021/06/03 08:04:34;;;;;;;0.70;0.25;;;;;;;-148.58;100.00;55229.56;5023964;28;20470;-59
2021/06/03 08:06:59;;;;;;;0.93;0.20;;;;;;;-148.58;100.00;55229.56;5022482;28;20076;-58
2021/06/03 08:09:25;;;;;;;0.30;0.17;;;;;;;-148.58;100.00;55229.56;5015153;28;20488;-58
2021/06/03 08:11:50;;;;;;;0.63;0.38;;;;;;;-148.58;100.00;55229.56;4993953;28;20045;-58
2021/06/03 08:14:15;;;;;;;1.10;0.77;;;;;;;-148.58;100.00;55229.56;5011555;28;20097;-59
2021/06/03 08:16:42;;;;;;;1.45;0.20;;;;;;;-148.58;100.00;55229.56;5014051;28;20037;-58
2021/06/03 08:19:07;;;;;;;2.25;0.20;;;;;;;-148.58;100.00;55229.56;5009501;28;20041;-58
2021/06/03 08:21:36;;;;;;;0.10;0.10;;;;;;;-148.58;100.00;55229.56;5019652;28;20042;-59
2021/06/03 08:24:03;;;;;;;0.95;0.10;;;;;;;-148.58;100.00;55229.56;5019906;28;20469;-59
2021/06/03 08:26:28;;;;;;;0.88;0.20;;;;;;;-148.58;100.00;55229.56;5016434;28;20076;-57
2021/06/03 08:28:57;;;;;;;2.65;0.40;;;;;;;-148.58;100.00;55229.56;5022610;28;20026;-58
2021/06/03 08:31:23;;;;;;;0.75;0.30;;;;;;;-148.58;100.00;55229.56;5027800;28;20380;-58
2021/06/03 08:33:48;;;;;;;1.17;0.22;;;;;;;-148.58;100.00;55229.56;4999594;28;20033;-58
2021/06/03 08:36:14;;;;;;;2.05;0.35;;;;;;;-148.58;100.00;55229.56;5023437;28;20165;-60
2021/06/03 08:38:39;;;;;;;0.90;0.40;;;;;;;-148.58;100.00;55229.56;5027564;28;20520;-59
2021/06/03 08:41:04;;;;;;;2.00;0.40;;;;;;;-148.58;100.00;55229.56;5030444;28;20049;-59
2021/06/03 08:43:32;;;;;;;0.28;0.20;;;;;;;-148.58;100.00;55229.56;5027870;28;20037;-59
2021/06/03 08:45:58;;;;;;;1.75;0.20;;;;;;;-148.58;100.00;55229.56;5018232;28;20025;-57
2021/06/03 08:48:25;;;;;;;0.60;0.30;;;;;;;-148.58;100.00;55229.56;5018865;28;20026;-57
2021/06/03 08:50:54;;;;;;;0.63;0.30;;;;;;;-148.58;100.00;55229.56;5022092;28;20089;-58
2021/06/03 08:53:21;;;;;;;1.77;0.20;;;;;;;-148.58;100.00;55229.56;5030564;28;20025;-57
2021/06/03 08:58:31;;;;;;;1.85;0.10;;;;;;;-148.58;100.00;55229.56;5016564;28;20612;-57
2021/06/03 09:00:58;;;;;;;0.88;0.15;;;;;;;-148.58;100.00;55229.56;5014309;28;20509;-57
2021/06/03 09:03:25;;;;;;;1.60;0.30;;;;;;;-148.58;100.00;55229.56;5024319;28;20354;-57
2021/06/03 09:05:51;;;;;;;1.92;0.20;;;;;;;-148.58;100.00;55229.56;5026997;28;20037;-58
2021/06/03 09:08:25;;;;;;;1.30;0.30;;;;;;;-148.58;100.00;55229.56;5022893;28;20034;-58
2021/06/03 09:10:54;;;;;;;0.68;0.28;;;;;;;-148.58;100.00;55229.56;5014781;28;20064;-57
2021/06/03 09:13:25;;;;;;;0.77;0.25;;;;;;;-148.58;100.00;55229.56;5021932;28;20088;-58
2021/06/03 09:16:00;;;;;;;0.75;0.25;;;;;;;-148.58;100.00;55229.56;5020209;28;20038;-58
2021/06/03 09:18:28;;;;;;;0.50;0.20;;;;;;;-148.58;100.00;55229.56;5023547;28;20465;-58
2021/06/03 09:20:54;;;;;;;0.82;0.20;;;;;;;-148.58;100.00;55229.56;5028767;28;20547;-58
2021/06/03 09:23:33;;;;;;;0.88;0.10;;;;;;;-148.58;100.00;55229.56;5029962;28;20088;-59
2021/06/03 09:26:04;;;;;;;0.93;0.22;;;;;;;-148.58;100.00;55229.56;5026854;28;20423;-57
2021/06/03 09:28:32;;;;;;;0.93;0.20;;;;;;;-148.58;100.00;55229.56;5027946;28;20527;-57
2021/06/03 09:31:01;;;;;;;1.98;0.30;;;;;;;-148.58;100.00;55229.56;5021721;28;20476;-58
2021/06/03 09:33:57;;;;;;;0.65;0.20;;;;;;;-148.58;100.00;55229.56;5031723;28;20061;-58
2021/06/03 09:36:39;;;;;;;1.35;0.28;;;;;;;-148.58;100.00;55229.56;5015583;28;20068;-57
2021/06/03 09:39:05;;;;;;;1.55;0.30;;;;;;;-148.58;100.00;55229.56;5034747;28;20119;-57
2021/06/03 09:41:31;;;;;;;0.82;0.30;;;;;;;-148.58;100.00;55229.56;5029583;28;20484;-58
2021/06/03 09:44:06;;;;;;;0.20;0.17;;;;;;;-148.58;100.00;55229.56;5025345;28;20485;-56
2021/06/03 09:46:40;;;;;;;2.25;0.40;;;;;;;-148.58;100.00;55229.56;5029124;28;20396;-58
2021/06/03 09:49:07;;;;;;;0.47;0.15;;;;;;;-148.58;100.00;55229.56;5027108;28;20080;-58
2021/06/03 09:51:38;;;;;;;0.98;0.20;;;;;;;-148.58;100.00;55229.56;5024233;28;20060;-57
2021/06/03 09:54:07;;;;;;;0.32;0.10;;;;;;;-148.58;100.00;55229.56;5013844;28;20033;-57
2021/06/03 09:56:35;;;;;;;2.80;0.52;;;;;;;-148.58;100.00;55229.56;5015713;28;20030;-58
2021/06/03 09:59:04;;;;;;;2.30;0.25;;;;;;;-148.58;100.00;55229.56;5012531;28;20025;-57
2021/06/03 10:01:44;;;;;;;0.82;0.30;;;;;;;-148.58;100.00;55229.56;5013069;28;20048;-58
2021/06/03 10:04:14;;;;;;;1.55;0.50;;;;;;;-148.58;100.00;55229.56;5012118;28;20347;-58
2021/06/03 10:07:01;;;;;;;0.60;0.20;;;;;;;-148.58;100.00;55229.56;5026269;28;20057;-57
2021/06/03 10:09:37;;;;;;;1.67;0.38;;;;;;;-148.58;100.00;55229.56;5030243;28;20099;-58
2021/06/03 10:12:04;;;;;;;1.13;0.30;;;;;;;-148.58;100.00;55229.56;5016300;28;20045;-57
2021/06/03 10:14:29;;;;;;;1.40;0.40;;;;;;;-148.58;100.00;55229.56;5030102;28;20344;-58
2021/06/03 10:16:54;;;;;;;0.57;0.10;;;;;;;-148.58;100.00;55229.56;5032550;28;20113;-56
2021/06/03 10:19:20;;;;;;;1.45;0.30;;;;;;;-148.58;100.00;55229.56;5030846;28;20036;-57
2021/06/03 10:22:10;;;;;;;0.63;0.20;;;;;;;-148.58;100.00;55229.56;5027639;23;20046;-57
2021/06/03 10:24:49;;;;;;;1.27;0.28;;;;;;;-148.58;100.00;55229.56;5012327;28;20037;-57
2021/06/03 10:27:15;;;;;;;0.75;0.20;;;;;;;-148.58;100.00;55229.56;5012343;28;20489;-57
2021/06/03 10:29:41;;;;;;;0.43;0.20;;;;;;;-148.58;100.00;55229.56;5028793;28;20060;-57
2021/06/03 10:32:06;;;;;;;1.05;0.30;;;;;;;-148.58;100.00;55229.56;5013549;28;20459;-58
2021/06/03 10:34:33;;;;;;;0.55;0.10;;;;;;;-148.58;100.00;55229.56;5013376;28;20034;-57
2021/06/03 10:36:58;;;;;;;1.48;0.30;;;;;;;-148.58;100.00;55229.56;5012279;28;20029;-57
2021/06/03 10:39:24;;;;;;;0.55;0.40;;;;;;;-148.58;100.00;55229.56;5013381;28;20033;-57
2021/06/03 10:41:50;;;;;;;0.70;0.10;;;;;;;-148.58;100.00;55229.56;5013218;28;20026;-57
2021/06/03 10:44:16;;;;;;;1.05;0.35;;;;;;;-148.58;100.00;55229.56;5012958;28;20068;-57
2021/06/03 10:46:44;;;;;;;0.60;0.20;;;;;;;-148.58;100.00;55229.56;5013000;28;20018;-57
2021/06/03 10:49:11;;;;;;;0.73;0.22;;;;;;;-148.58;100.00;55229.56;5013259;28;20029;-57
2021/06/03 10:51:39;;;;;;;0.20;0.10;;;;;;;-148.58;100.00;55229.56;5027953;28;20472;-57
2021/06/03 10:54:04;;;;;;;1.38;0.30;;;;;;;-148.58;100.00;55229.56;5013154;28;20032;-57
2021/06/03 10:56:29;;;;;;;0.63;0.10;;;;;;;-148.58;100.00;55229.56;5013064;28;20044;-57
2021/06/03 10:58:55;;;;;;;0.45;0.10;;;;;;;-148.58;100.00;55229.56;5013093;28;20574;-57
2021/06/03 11:01:23;;;;;;;0.55;0.20;;;;;;;-148.58;100.00;55229.56;5005342;28;20385;-57
2021/06/03 11:04:06;;;;;;;0.70;0.20;;;;;;;-148.58;100.00;55229.56;4994916;28;20034;-57
2021/06/03 11:06:41;;;;;;;1.35;0.40;;;;;;;-148.58;100.00;55229.56;5012116;28;20026;-57
2021/06/03 11:09:08;;;;;;;0.40;0.20;;;;;;;-148.58;100.00;55229.56;5003467;28;20160;-58
2021/06/03 11:11:36;;;;;;;0.63;0.10;;;;;;;-148.58;100.00;55229.56;5006949;28;20025;-57
2021/06/03 11:14:07;;;;;;;0.10;0.10;;;;;;;-148.58;100.00;55229.56;5007469;28;20025;-58